createdAt,value
2017-03-25T00:00:02.052Z,929.71
2017-03-25T00:00:30.418Z,929.75
2017-03-25T00:00:58.651Z,929.76
2017-03-25T00:01:26.972Z,929.76
2017-03-25T00:01:55.236Z,929.76
2017-03-25T00:02:23.557Z,929.74
2017-03-25T00:02:51.945Z,929.75
2017-03-25T00:03:20.386Z,929.76
2017-03-25T00:03:48.740Z,929.75
2017-03-25T00:04:17.135Z,929.73
2017-03-25T00:04:45.459Z,929.73
2017-03-25T00:05:14.481Z,929.74
2017-03-25T00:05:42.633Z,929.71
2017-03-25T00:06:10.993Z,929.75
2017-03-25T00:06:39.404Z,929.73
2017-03-25T00:07:07.726Z,929.73
2017-03-25T00:07:36.165Z,929.7
2017-03-25T00:08:04.517Z,929.76
2017-03-25T00:08:32.822Z,929.75
2017-03-25T00:09:01.051Z,929.75
2017-03-25T00:09:29.767Z,929.73
2017-03-25T00:09:57.912Z,929.75
2017-03-25T00:10:26.188Z,929.74
2017-03-25T00:10:54.414Z,929.77
2017-03-25T00:11:22.670Z,929.78
2017-03-25T00:11:50.943Z,929.77
2017-03-25T00:12:19.310Z,929.81
2017-03-25T00:12:47.676Z,929.85
2017-03-25T00:13:15.976Z,929.85
2017-03-25T00:13:44.208Z,929.85
2017-03-25T00:14:12.478Z,929.87
2017-03-25T00:14:40.875Z,929.9
2017-03-25T00:15:09.077Z,929.91
2017-03-25T00:15:37.409Z,929.91
2017-03-25T00:16:05.801Z,929.94
2017-03-25T00:16:34.007Z,929.93
2017-03-25T00:17:02.384Z,929.9
2017-03-25T00:17:30.462Z,929.93
2017-03-25T00:17:58.780Z,929.94
2017-03-25T00:18:27.030Z,929.94
2017-03-25T00:18:55.201Z,929.93
2017-03-25T00:19:23.430Z,929.96
2017-03-25T00:19:51.718Z,929.94
2017-03-25T00:20:20.003Z,929.94
2017-03-25T00:20:48.297Z,929.97
2017-03-25T00:21:16.845Z,929.95
2017-03-25T00:21:45.135Z,929.95
2017-03-25T00:22:13.559Z,930
2017-03-25T00:22:41.963Z,929.97
2017-03-25T00:23:10.185Z,930.06
2017-03-25T00:23:38.480Z,930.03
2017-03-25T00:24:06.836Z,930.03
2017-03-25T00:24:35.175Z,930.07
2017-03-25T00:25:03.411Z,930.05
2017-03-25T00:25:31.616Z,930.06
2017-03-25T00:25:59.758Z,930.11
2017-03-25T00:26:28.018Z,930.07
2017-03-25T00:26:56.307Z,930.13
2017-03-25T00:27:24.466Z,930.14
2017-03-25T00:27:52.828Z,930.12
2017-03-25T00:28:21.081Z,930.16
2017-03-25T00:28:49.384Z,930.18
2017-03-25T00:29:17.596Z,930.19
2017-03-25T00:29:45.926Z,930.21
2017-03-25T00:30:14.210Z,930.2
2017-03-25T00:30:42.573Z,930.2
2017-03-25T00:31:10.874Z,930.18
2017-03-25T00:31:39.081Z,930.22
2017-03-25T00:32:07.503Z,930.21
2017-03-25T00:32:35.680Z,930.24
2017-03-25T00:33:04.018Z,930.21
2017-03-25T00:33:32.370Z,930.21
2017-03-25T00:34:00.269Z,930.2
2017-03-25T00:34:28.634Z,930.22
2017-03-25T00:34:56.818Z,930.2
2017-03-25T00:35:25.863Z,930.18
2017-03-25T00:35:54.139Z,930.16
2017-03-25T00:36:22.499Z,930.15
2017-03-25T00:36:50.821Z,930.17
2017-03-25T00:37:19.079Z,930.18
2017-03-25T00:37:47.486Z,930.17
2017-03-25T00:38:15.747Z,930.15
2017-03-25T00:38:43.996Z,930.19
2017-03-25T00:39:12.246Z,930.16
2017-03-25T00:39:40.439Z,930.16
2017-03-25T00:40:08.747Z,930.14
2017-03-25T00:40:36.981Z,930.15
2017-03-25T00:41:05.370Z,930.12
2017-03-25T00:41:33.730Z,930.13
2017-03-25T00:42:01.986Z,930.16
2017-03-25T00:42:30.170Z,930.1
2017-03-25T00:42:58.337Z,930.11
2017-03-25T00:43:26.705Z,930.15
2017-03-25T00:43:55.157Z,930.12
2017-03-25T00:44:23.429Z,930.12
2017-03-25T00:44:52.071Z,930.09
2017-03-25T00:45:20.500Z,930.12
2017-03-25T00:45:48.806Z,930.09
2017-03-25T00:46:17.182Z,930.11
2017-03-25T00:46:45.573Z,930.12
2017-03-25T00:47:13.745Z,930.07
2017-03-25T00:47:42.022Z,930.09
2017-03-25T00:48:10.329Z,930.07
2017-03-25T00:48:38.622Z,930.08
2017-03-25T00:49:06.695Z,930.05
2017-03-25T00:49:34.893Z,930.09
2017-03-25T00:50:03.455Z,930.08
2017-03-25T00:50:31.729Z,930.09
2017-03-25T00:51:00.120Z,930.09
2017-03-25T00:51:28.344Z,930.09
2017-03-25T00:51:56.730Z,930.08
2017-03-25T00:52:25.123Z,930.1
2017-03-25T00:52:53.435Z,930.12
2017-03-25T00:53:21.833Z,930.12
2017-03-25T00:53:49.993Z,930.16
2017-03-25T00:54:29.381Z,930.14
2017-03-25T00:54:57.738Z,930.19
2017-03-25T00:55:26.122Z,930.2
2017-03-25T00:55:54.610Z,930.2
2017-03-25T00:56:22.876Z,930.22
2017-03-25T00:56:51.040Z,930.24
2017-03-25T00:57:19.244Z,930.24
2017-03-25T00:57:47.422Z,930.26
2017-03-25T00:58:15.598Z,930.27
2017-03-25T00:58:43.947Z,930.26
2017-03-25T00:59:12.337Z,930.32
2017-03-25T00:59:40.470Z,930.3
2017-03-25T01:00:08.909Z,930.32
2017-03-25T01:00:37.186Z,930.31
2017-03-25T01:01:05.570Z,930.33
2017-03-25T01:01:33.769Z,930.3
2017-03-25T01:02:02.176Z,930.32
2017-03-25T01:02:30.279Z,930.34
2017-03-25T01:02:58.646Z,930.33
2017-03-25T01:03:26.928Z,930.33
2017-03-25T01:03:55.125Z,930.34
2017-03-25T01:04:27.367Z,930.34
2017-03-25T01:04:55.608Z,930.35
2017-03-25T01:05:23.754Z,930.34
2017-03-25T01:05:52.091Z,930.35
2017-03-25T01:06:20.349Z,930.35
2017-03-25T01:06:48.607Z,930.36
2017-03-25T01:07:16.936Z,930.31
2017-03-25T01:07:44.960Z,930.36
2017-03-25T01:08:13.271Z,930.34
2017-03-25T01:08:41.635Z,930.32
2017-03-25T01:09:10.010Z,930.33
2017-03-25T01:09:38.418Z,930.3
2017-03-25T01:10:06.682Z,930.33
2017-03-25T01:10:35.078Z,930.33
2017-03-25T01:11:03.280Z,930.3
2017-03-25T01:11:31.507Z,930.31
2017-03-25T01:11:59.858Z,930.34
2017-03-25T01:12:27.976Z,930.29
2017-03-25T01:12:56.292Z,930.29
2017-03-25T01:13:24.715Z,930.32
2017-03-25T01:13:53.087Z,930.3
2017-03-25T01:14:21.602Z,930.32
2017-03-25T01:14:50.144Z,930.32
2017-03-25T01:15:18.258Z,930.31
2017-03-25T01:15:46.695Z,930.32
2017-03-25T01:16:14.988Z,930.27
2017-03-25T01:16:43.361Z,930.25
2017-03-25T01:17:11.635Z,930.26
2017-03-25T01:17:39.937Z,930.28
2017-03-25T01:18:08.267Z,930.27
2017-03-25T01:18:36.458Z,930.23
2017-03-25T01:19:04.744Z,930.27
2017-03-25T01:19:32.981Z,930.26
2017-03-25T01:20:01.219Z,930.27
2017-03-25T01:20:29.405Z,930.3
2017-03-25T01:20:57.768Z,930.28
2017-03-25T01:21:25.878Z,930.27
2017-03-25T01:21:54.189Z,930.29
2017-03-25T01:22:22.474Z,930.29
2017-03-25T01:22:50.819Z,930.26
2017-03-25T01:23:19.057Z,930.27
2017-03-25T01:23:47.420Z,930.27
2017-03-25T01:24:15.908Z,930.24
2017-03-25T01:24:44.377Z,930.24
2017-03-25T01:25:12.605Z,930.22
2017-03-25T01:25:40.878Z,930.25
2017-03-25T01:26:09.073Z,930.22
2017-03-25T01:26:37.433Z,930.23
2017-03-25T01:27:05.764Z,930.19
2017-03-25T01:27:34.147Z,930.24
2017-03-25T01:28:02.612Z,930.23
2017-03-25T01:28:30.854Z,930.26
2017-03-25T01:28:59.385Z,930.3
2017-03-25T01:29:27.702Z,930.3
2017-03-25T01:29:56.009Z,930.32
2017-03-25T01:30:24.276Z,930.33
2017-03-25T01:30:52.416Z,930.32
2017-03-25T01:31:20.698Z,930.31
2017-03-25T01:31:49.167Z,930.3
2017-03-25T01:32:17.529Z,930.31
2017-03-25T01:32:45.831Z,930.29
2017-03-25T01:33:13.887Z,930.3
2017-03-25T01:33:42.301Z,930.27
2017-03-25T01:34:10.520Z,930.24
2017-03-25T01:34:38.790Z,930.24
2017-03-25T01:35:06.905Z,930.22
2017-03-25T01:35:35.122Z,930.25
2017-03-25T01:36:03.524Z,930.22
2017-03-25T01:36:31.831Z,930.22
2017-03-25T01:37:00.140Z,930.26
2017-03-25T01:37:28.539Z,930.24
2017-03-25T01:37:56.808Z,930.25
2017-03-25T01:38:25.140Z,930.24
2017-03-25T01:38:53.378Z,930.26
2017-03-25T01:39:21.782Z,930.28
2017-03-25T01:39:49.965Z,930.24
2017-03-25T01:40:18.374Z,930.29
2017-03-25T01:40:46.834Z,930.3
2017-03-25T01:41:14.981Z,930.29
2017-03-25T01:41:43.340Z,930.26
2017-03-25T01:42:11.619Z,930.24
2017-03-25T01:42:39.960Z,930.26
2017-03-25T01:43:08.233Z,930.25
2017-03-25T01:43:36.481Z,930.24
2017-03-25T01:44:04.879Z,930.24
2017-03-25T01:44:33.173Z,930.23
2017-03-25T01:45:01.720Z,930.19
2017-03-25T01:45:29.954Z,930.18
2017-03-25T01:45:58.288Z,930.19
2017-03-25T01:46:26.360Z,930.18
2017-03-25T01:46:54.865Z,930.13
2017-03-25T01:47:23.277Z,930.13
2017-03-25T01:47:51.639Z,930.14
2017-03-25T01:48:19.923Z,930.14
2017-03-25T01:48:48.507Z,930.11
2017-03-25T01:49:16.755Z,930.09
2017-03-25T01:49:45.131Z,930.08
2017-03-25T01:50:13.469Z,930.11
2017-03-25T01:50:41.426Z,930.08
2017-03-25T01:51:09.846Z,930.09
2017-03-25T01:51:38.271Z,930.09
2017-03-25T01:52:06.544Z,930.07
2017-03-25T01:52:35.168Z,930.09
2017-03-25T01:53:03.494Z,930.08
2017-03-25T01:53:31.861Z,930.09
2017-03-25T01:54:00.153Z,930.06
2017-03-25T01:54:28.256Z,930.07
2017-03-25T01:54:56.378Z,930.05
2017-03-25T01:55:24.750Z,930.05
2017-03-25T01:55:53.049Z,930.05
2017-03-25T01:56:21.393Z,930.05
2017-03-25T01:56:49.859Z,930.06
2017-03-25T01:57:18.171Z,930.08
2017-03-25T01:57:46.391Z,930.05
2017-03-25T01:58:14.775Z,930.08
2017-03-25T01:58:43.529Z,930.11
2017-03-25T01:59:11.920Z,930.1
2017-03-25T01:59:40.282Z,930.12
2017-03-25T02:00:08.890Z,930.13
2017-03-25T02:00:37.408Z,930.16
2017-03-25T02:01:05.707Z,930.18
2017-03-25T02:01:34.112Z,930.21
2017-03-25T02:02:02.257Z,930.16
2017-03-25T02:02:30.652Z,930.14
2017-03-25T02:02:58.812Z,930.17
2017-03-25T02:03:27.049Z,930.15
2017-03-25T02:03:55.497Z,930.2
2017-03-25T02:04:23.932Z,930.17
2017-03-25T02:04:52.198Z,930.19
2017-03-25T02:05:20.478Z,930.18
2017-03-25T02:05:48.792Z,930.17
2017-03-25T02:06:17.130Z,930.15
2017-03-25T02:06:45.535Z,930.17
2017-03-25T02:07:13.829Z,930.18
2017-03-25T02:07:42.186Z,930.21
2017-03-25T02:08:10.376Z,930.16
2017-03-25T02:08:38.738Z,930.17
2017-03-25T02:09:07.015Z,930.19
2017-03-25T02:09:35.405Z,930.17
2017-03-25T02:10:03.851Z,930.2
2017-03-25T02:10:32.081Z,930.2
2017-03-25T02:11:00.268Z,930.15
2017-03-25T02:11:28.507Z,930.2
2017-03-25T02:11:56.909Z,930.15
2017-03-25T02:12:25.234Z,930.17
2017-03-25T02:12:53.531Z,930.17
2017-03-25T02:13:21.806Z,930.17
2017-03-25T02:13:50.302Z,930.19
2017-03-25T02:14:18.589Z,930.15
2017-03-25T02:14:47.032Z,930.14
2017-03-25T02:15:15.390Z,930.18
2017-03-25T02:15:43.868Z,930.14
2017-03-25T02:16:12.262Z,930.15
2017-03-25T02:16:40.465Z,930.15
2017-03-25T02:17:08.875Z,930.17
2017-03-25T02:17:37.170Z,930.14
2017-03-25T02:18:05.761Z,930.13
2017-03-25T02:18:33.965Z,930.13
2017-03-25T02:19:02.342Z,930.14
2017-03-25T02:19:30.671Z,930.13
2017-03-25T02:19:59.077Z,930.14
2017-03-25T02:20:27.437Z,930.15
2017-03-25T02:20:55.699Z,930.16
2017-03-25T02:21:24.014Z,930.16
2017-03-25T02:21:52.377Z,930.13
2017-03-25T02:22:20.817Z,930.14
2017-03-25T02:22:49.087Z,930.14
2017-03-25T02:23:17.170Z,930.18
2017-03-25T02:23:45.554Z,930.17
2017-03-25T02:24:13.930Z,930.14
2017-03-25T02:24:42.037Z,930.15
2017-03-25T02:25:10.371Z,930.11
2017-03-25T02:25:38.919Z,930.13
2017-03-25T02:26:07.177Z,930.11
2017-03-25T02:26:35.654Z,930.13
2017-03-25T02:27:04.530Z,930.13
2017-03-25T02:27:32.834Z,930.11
2017-03-25T02:28:01.192Z,930.11
2017-03-25T02:28:29.551Z,930.07
2017-03-25T02:28:58.017Z,930.05
2017-03-25T02:29:26.383Z,930.04
2017-03-25T02:29:54.796Z,930.03
2017-03-25T02:30:23.195Z,929.98
2017-03-25T02:30:51.524Z,930.01
2017-03-25T02:31:19.981Z,929.98
2017-03-25T02:31:48.280Z,929.98
2017-03-25T02:32:16.579Z,929.98
2017-03-25T02:32:44.825Z,929.95
2017-03-25T02:33:13.203Z,929.93
2017-03-25T02:33:41.763Z,929.96
2017-03-25T02:34:09.936Z,929.94
2017-03-25T02:34:38.240Z,929.92
2017-03-25T02:35:06.702Z,929.89
2017-03-25T02:35:34.971Z,929.92
2017-03-25T02:36:03.124Z,929.94
2017-03-25T02:36:31.375Z,929.9
2017-03-25T02:36:59.706Z,929.91
2017-03-25T02:37:28.027Z,929.9
2017-03-25T02:37:56.281Z,929.9
2017-03-25T02:38:24.802Z,929.87
2017-03-25T02:38:53.241Z,929.89
2017-03-25T02:39:21.575Z,929.85
2017-03-25T02:39:49.925Z,929.85
2017-03-25T02:40:18.445Z,929.85
2017-03-25T02:40:46.686Z,929.85
2017-03-25T02:41:15.187Z,929.86
2017-03-25T02:41:43.608Z,929.85
2017-03-25T02:42:12.008Z,929.86
2017-03-25T02:42:40.426Z,929.9
2017-03-25T02:43:08.606Z,929.9
2017-03-25T02:43:36.809Z,929.9
2017-03-25T02:44:05.466Z,929.92
2017-03-25T02:44:34.056Z,929.92
2017-03-25T02:45:02.404Z,929.92
2017-03-25T02:45:30.802Z,929.95
2017-03-25T02:45:59.250Z,929.95
2017-03-25T02:46:27.609Z,929.92
2017-03-25T02:46:55.890Z,929.98
2017-03-25T02:47:24.050Z,929.97
2017-03-25T02:47:52.393Z,929.88
2017-03-25T02:48:20.823Z,929.94
2017-03-25T02:48:49.316Z,929.91
2017-03-25T02:49:17.671Z,929.87
2017-03-25T02:49:45.991Z,929.87
2017-03-25T02:50:14.451Z,929.86
2017-03-25T02:50:42.830Z,929.84
2017-03-25T02:51:11.243Z,929.79
2017-03-25T02:51:39.487Z,929.83
2017-03-25T02:52:07.747Z,929.8
2017-03-25T02:52:36.100Z,929.8
2017-03-25T02:53:04.431Z,929.77
2017-03-25T02:53:32.743Z,929.76
2017-03-25T02:54:01.035Z,929.78
2017-03-25T02:54:29.462Z,929.78
2017-03-25T02:54:57.884Z,929.81
2017-03-25T02:55:26.230Z,929.81
2017-03-25T02:55:54.709Z,929.79
2017-03-25T02:56:23.183Z,929.82
2017-03-25T02:56:52.095Z,929.81
2017-03-25T02:57:20.271Z,929.82
2017-03-25T02:57:48.512Z,929.84
2017-03-25T02:58:16.945Z,929.84
2017-03-25T02:58:45.373Z,929.85
2017-03-25T02:59:13.814Z,929.84
2017-03-25T02:59:42.219Z,929.82
2017-03-25T03:00:10.589Z,929.8
2017-03-25T03:00:39.057Z,929.8
2017-03-25T03:01:07.464Z,929.75
2017-03-25T03:01:35.952Z,929.75
2017-03-25T03:02:04.414Z,929.69
2017-03-25T03:02:33.004Z,929.71
2017-03-25T03:03:01.283Z,929.7
2017-03-25T03:03:29.554Z,929.7
2017-03-25T03:03:57.886Z,929.71
2017-03-25T03:04:26.300Z,929.73
2017-03-25T03:04:54.682Z,929.67
2017-03-25T03:05:23.101Z,929.72
2017-03-25T03:05:51.673Z,929.74
2017-03-25T03:06:19.983Z,929.75
2017-03-25T03:06:48.330Z,929.78
2017-03-25T03:07:16.617Z,929.75
2017-03-25T03:07:45.011Z,929.72
2017-03-25T03:08:13.513Z,929.76
2017-03-25T03:08:41.833Z,929.74
2017-03-25T03:09:10.194Z,929.77
2017-03-25T03:09:38.808Z,929.74
2017-03-25T03:10:06.694Z,929.74
2017-03-25T03:10:34.846Z,929.69
2017-03-25T03:11:03.121Z,929.7
2017-03-25T03:11:31.401Z,929.68
2017-03-25T03:11:59.777Z,929.68
2017-03-25T03:12:28.088Z,929.67
2017-03-25T03:12:56.423Z,929.66
2017-03-25T03:13:24.711Z,929.64
2017-03-25T03:13:53.037Z,929.64
2017-03-25T03:14:21.243Z,929.66
2017-03-25T03:14:49.643Z,929.67
2017-03-25T03:15:18.021Z,929.63
2017-03-25T03:15:46.290Z,929.62
2017-03-25T03:16:14.446Z,929.6
2017-03-25T03:16:42.821Z,929.62
2017-03-25T03:17:11.245Z,929.62
2017-03-25T03:17:39.627Z,929.59
2017-03-25T03:18:07.713Z,929.61
2017-03-25T03:18:35.744Z,929.6
2017-03-25T03:19:04.115Z,929.59
2017-03-25T03:19:32.194Z,929.59
2017-03-25T03:20:00.673Z,929.55
2017-03-25T03:20:28.893Z,929.56
2017-03-25T03:20:57.326Z,929.53
2017-03-25T03:21:25.682Z,929.54
2017-03-25T03:21:53.908Z,929.55
2017-03-25T03:22:22.131Z,929.52
2017-03-25T03:22:50.502Z,929.53
2017-03-25T03:23:18.944Z,929.51
2017-03-25T03:23:47.282Z,929.52
2017-03-25T03:24:15.665Z,929.51
2017-03-25T03:24:44.099Z,929.5
2017-03-25T03:25:12.342Z,929.49
2017-03-25T03:25:40.599Z,929.49
2017-03-25T03:26:08.810Z,929.47
2017-03-25T03:26:37.078Z,929.46
2017-03-25T03:27:05.476Z,929.44
2017-03-25T03:27:33.624Z,929.42
2017-03-25T03:28:01.783Z,929.4
2017-03-25T03:28:29.995Z,929.41
2017-03-25T03:28:58.252Z,929.36
2017-03-25T03:29:26.644Z,929.35
2017-03-25T03:29:55.006Z,929.35
2017-03-25T03:30:23.204Z,929.35
2017-03-25T03:30:51.525Z,929.36
2017-03-25T03:31:19.669Z,929.32
2017-03-25T03:31:47.992Z,929.33
2017-03-25T03:32:16.347Z,929.34
2017-03-25T03:32:44.734Z,929.33
2017-03-25T03:33:12.961Z,929.37
2017-03-25T03:33:41.486Z,929.34
2017-03-25T03:34:09.839Z,929.34
2017-03-25T03:34:38.040Z,929.32
2017-03-25T03:35:06.429Z,929.32
2017-03-25T03:35:34.913Z,929.33
2017-03-25T03:36:03.251Z,929.3
2017-03-25T03:36:31.483Z,929.32
2017-03-25T03:36:59.903Z,929.32
2017-03-25T03:37:28.566Z,929.28
2017-03-25T03:37:56.897Z,929.3
2017-03-25T03:38:25.320Z,929.3
2017-03-25T03:38:53.727Z,929.27
2017-03-25T03:39:22.036Z,929.31
2017-03-25T03:39:50.231Z,929.28
2017-03-25T03:40:18.621Z,929.29
2017-03-25T03:40:46.914Z,929.29
2017-03-25T03:41:15.243Z,929.26
2017-03-25T03:41:43.542Z,929.28
2017-03-25T03:42:11.785Z,929.27
2017-03-25T03:42:40.010Z,929.27
2017-03-25T03:43:08.399Z,929.28
2017-03-25T03:43:36.740Z,929.27
2017-03-25T03:44:05.121Z,929.27
2017-03-25T03:44:33.259Z,929.29
2017-03-25T03:45:01.683Z,929.3
2017-03-25T03:45:29.877Z,929.29
2017-03-25T03:45:58.310Z,929.26
2017-03-25T03:46:26.666Z,929.24
2017-03-25T03:46:55.024Z,929.21
2017-03-25T03:47:23.329Z,929.21
2017-03-25T03:47:51.620Z,929.21
2017-03-25T03:48:19.576Z,929.24
2017-03-25T03:48:47.810Z,929.2
2017-03-25T03:49:16.032Z,929.19
2017-03-25T03:49:44.378Z,929.23
2017-03-25T03:50:12.969Z,929.19
2017-03-25T03:50:41.081Z,929.19
2017-03-25T03:51:09.462Z,929.2
2017-03-25T03:51:37.861Z,929.18
2017-03-25T03:52:06.065Z,929.2
2017-03-25T03:52:34.307Z,929.18
2017-03-25T03:53:02.757Z,929.19
2017-03-25T03:53:31.157Z,929.16
2017-03-25T03:53:59.356Z,929.17
2017-03-25T03:54:27.719Z,929.16
2017-03-25T03:54:56.124Z,929.15
2017-03-25T03:55:24.295Z,929.14
2017-03-25T03:55:52.440Z,929.14
2017-03-25T03:56:20.965Z,929.14
2017-03-25T03:56:49.329Z,929.16
2017-03-25T03:57:17.450Z,929.17
2017-03-25T03:57:45.729Z,929.17
2017-03-25T03:58:14.293Z,929.17
2017-03-25T03:58:42.843Z,929.19
2017-03-25T03:59:11.201Z,929.21
2017-03-25T03:59:39.422Z,929.21
2017-03-25T04:00:07.815Z,929.22
2017-03-25T04:00:36.135Z,929.23
2017-03-25T04:01:04.442Z,929.22
2017-03-25T04:01:32.699Z,929.2
2017-03-25T04:02:01.070Z,929.24
2017-03-25T04:02:29.115Z,929.21
2017-03-25T04:02:57.401Z,929.18
2017-03-25T04:03:25.828Z,929.23
2017-03-25T04:03:54.035Z,929.2
2017-03-25T04:04:22.182Z,929.22
2017-03-25T04:04:50.578Z,929.21
2017-03-25T04:05:19.076Z,929.21
2017-03-25T04:05:47.182Z,929.23
2017-03-25T04:06:15.313Z,929.23
2017-03-25T04:06:43.640Z,929.22
2017-03-25T04:07:12.000Z,929.23
2017-03-25T04:07:40.443Z,929.23
2017-03-25T04:08:08.913Z,929.23
2017-03-25T04:08:37.210Z,929.2
2017-03-25T04:09:05.377Z,929.23
2017-03-25T04:09:33.709Z,929.21
2017-03-25T04:10:02.100Z,929.25
2017-03-25T04:10:30.325Z,929.24
2017-03-25T04:10:58.625Z,929.24
2017-03-25T04:11:26.901Z,929.25
2017-03-25T04:11:55.239Z,929.25
2017-03-25T04:12:23.618Z,929.27
2017-03-25T04:12:51.900Z,929.29
2017-03-25T04:13:20.403Z,929.24
2017-03-25T04:13:48.817Z,929.25
2017-03-25T04:14:17.304Z,929.23
2017-03-25T04:14:45.682Z,929.23
2017-03-25T04:15:14.071Z,929.17
2017-03-25T04:15:42.332Z,929.2
2017-03-25T04:16:10.640Z,929.19
2017-03-25T04:16:39.041Z,929.17
2017-03-25T04:17:07.532Z,929.2
2017-03-25T04:17:35.963Z,929.19
2017-03-25T04:18:04.370Z,929.16
2017-03-25T04:18:32.644Z,929.19
2017-03-25T04:19:01.055Z,929.2
2017-03-25T04:19:29.307Z,929.18
2017-03-25T04:19:57.809Z,929.19
2017-03-25T04:20:26.142Z,929.2
2017-03-25T04:20:54.676Z,929.19
2017-03-25T04:21:22.823Z,929.21
2017-03-25T04:21:51.005Z,929.21
2017-03-25T04:22:19.376Z,929.18
2017-03-25T04:22:47.556Z,929.18
2017-03-25T04:23:15.735Z,929.18
2017-03-25T04:23:43.953Z,929.18
2017-03-25T04:24:12.290Z,929.18
2017-03-25T04:24:40.692Z,929.16
2017-03-25T04:25:08.851Z,929.15
2017-03-25T04:25:37.246Z,929.15
2017-03-25T04:26:05.546Z,929.13
2017-03-25T04:26:33.806Z,929.1
2017-03-25T04:27:02.093Z,929.13
2017-03-25T04:27:30.359Z,929.12
2017-03-25T04:27:58.664Z,929.06
2017-03-25T04:28:27.000Z,929.07
2017-03-25T04:28:55.288Z,929.03
2017-03-25T04:29:23.488Z,929.07
2017-03-25T04:29:51.755Z,929.09
2017-03-25T04:30:19.995Z,929.09
2017-03-25T04:30:48.321Z,929.07
2017-03-25T04:31:16.653Z,929.08
2017-03-25T04:31:44.942Z,929.1
2017-03-25T04:32:13.098Z,929.12
2017-03-25T04:32:41.328Z,929.07
2017-03-25T04:33:09.442Z,929.07
2017-03-25T04:33:37.641Z,929.04
2017-03-25T04:34:05.713Z,929.06
2017-03-25T04:34:33.910Z,929.04
2017-03-25T04:35:02.267Z,929.06
2017-03-25T04:35:30.659Z,929.04
2017-03-25T04:35:58.879Z,929.08
2017-03-25T04:36:27.091Z,929.06
2017-03-25T04:36:55.239Z,929.08
2017-03-25T04:37:23.458Z,929.08
2017-03-25T04:37:51.722Z,929.08
2017-03-25T04:38:19.867Z,929.09
2017-03-25T04:38:47.921Z,929.07
2017-03-25T04:39:16.078Z,929.07
2017-03-25T04:39:44.249Z,929.07
2017-03-25T04:40:12.511Z,929.04
2017-03-25T04:40:40.915Z,929.03
2017-03-25T04:41:09.348Z,929.06
2017-03-25T04:41:37.643Z,929.06
2017-03-25T04:42:05.874Z,929.09
2017-03-25T04:42:33.962Z,929.07
2017-03-25T04:43:02.249Z,929.06
2017-03-25T04:43:30.497Z,929.07
2017-03-25T04:43:58.905Z,929.08
2017-03-25T04:44:27.039Z,929.06
2017-03-25T04:44:55.186Z,929.08
2017-03-25T04:45:23.255Z,929.06
2017-03-25T04:45:51.402Z,929.05
2017-03-25T04:46:19.677Z,929.06
2017-03-25T04:46:47.815Z,929.05
2017-03-25T04:47:15.904Z,929.04
2017-03-25T04:47:44.094Z,929.02
2017-03-25T04:48:12.284Z,929
2017-03-25T04:48:40.432Z,929.03
2017-03-25T04:49:08.668Z,929
2017-03-25T04:49:36.824Z,929.02
2017-03-25T04:50:05.112Z,928.99
2017-03-25T04:50:33.466Z,929.01
2017-03-25T04:51:01.546Z,928.98
2017-03-25T04:51:29.700Z,929.01
2017-03-25T04:51:57.734Z,928.98
2017-03-25T04:52:25.858Z,929
2017-03-25T04:52:54.022Z,928.99
2017-03-25T04:53:22.164Z,928.95
2017-03-25T04:53:50.443Z,928.98
2017-03-25T04:54:18.634Z,928.97
2017-03-25T04:54:46.775Z,928.98
2017-03-25T04:55:15.009Z,929
2017-03-25T04:55:43.289Z,929
2017-03-25T04:56:11.563Z,928.99
2017-03-25T04:56:39.645Z,928.99
2017-03-25T04:57:07.825Z,928.99
2017-03-25T04:57:36.102Z,928.98
2017-03-25T04:58:04.242Z,929.02
2017-03-25T04:58:32.418Z,929.04
2017-03-25T04:59:00.602Z,929
2017-03-25T04:59:28.730Z,929.02
2017-03-25T04:59:57.002Z,929.01
2017-03-25T05:00:25.285Z,929.05
2017-03-25T05:00:53.462Z,929.06
2017-03-25T05:01:21.608Z,929.06
2017-03-25T05:01:49.840Z,929.06
2017-03-25T05:02:18.047Z,929.05
2017-03-25T05:02:46.298Z,929.04
2017-03-25T05:03:14.297Z,929.08
2017-03-25T05:03:42.528Z,929.05
2017-03-25T05:04:10.807Z,929.05
2017-03-25T05:04:38.955Z,929.05
2017-03-25T05:05:07.198Z,929.05
2017-03-25T05:05:35.416Z,929.04
2017-03-25T05:06:03.540Z,929.04
2017-03-25T05:06:31.809Z,929.02
2017-03-25T05:07:00.083Z,929.01
2017-03-25T05:07:28.228Z,929.01
2017-03-25T05:07:56.512Z,929.01
2017-03-25T05:08:24.494Z,928.99
2017-03-25T05:08:52.779Z,928.95
2017-03-25T05:09:21.065Z,928.98
2017-03-25T05:09:49.341Z,928.94
2017-03-25T05:10:17.550Z,928.94
2017-03-25T05:10:45.871Z,928.89
2017-03-25T05:11:14.059Z,928.89
2017-03-25T05:11:42.067Z,928.9
2017-03-25T05:12:10.351Z,928.88
2017-03-25T05:12:38.521Z,928.84
2017-03-25T05:13:06.778Z,928.86
2017-03-25T05:13:34.934Z,928.82
2017-03-25T05:14:03.106Z,928.82
2017-03-25T05:14:31.157Z,928.82
2017-03-25T05:14:59.297Z,928.83
2017-03-25T05:15:27.552Z,928.79
2017-03-25T05:15:55.934Z,928.8
2017-03-25T05:16:24.043Z,928.81
2017-03-25T05:16:52.028Z,928.8
2017-03-25T05:17:20.214Z,928.77
2017-03-25T05:17:48.400Z,928.76
2017-03-25T05:18:16.763Z,928.75
2017-03-25T05:18:45.029Z,928.76
2017-03-25T05:19:13.158Z,928.76
2017-03-25T05:19:41.216Z,928.77
2017-03-25T05:20:09.420Z,928.72
2017-03-25T05:20:37.688Z,928.77
2017-03-25T05:21:05.923Z,928.73
2017-03-25T05:21:33.966Z,928.72
2017-03-25T05:22:02.156Z,928.73
2017-03-25T05:22:30.284Z,928.72
2017-03-25T05:22:58.439Z,928.68
2017-03-25T05:23:26.719Z,928.69
2017-03-25T05:23:54.842Z,928.67
2017-03-25T05:24:22.940Z,928.66
2017-03-25T05:24:51.148Z,928.63
2017-03-25T05:25:19.393Z,928.67
2017-03-25T05:25:47.604Z,928.63
2017-03-25T05:26:15.882Z,928.64
2017-03-25T05:26:43.964Z,928.63
2017-03-25T05:27:12.138Z,928.6
2017-03-25T05:27:40.401Z,928.63
2017-03-25T05:28:08.671Z,928.61
2017-03-25T05:28:36.848Z,928.58
2017-03-25T05:29:05.051Z,928.58
2017-03-25T05:29:33.413Z,928.57
2017-03-25T05:30:01.583Z,928.56
2017-03-25T05:30:29.626Z,928.53
2017-03-25T05:30:58.042Z,928.56
2017-03-25T05:31:26.255Z,928.57
2017-03-25T05:31:54.508Z,928.56
2017-03-25T05:32:22.671Z,928.58
2017-03-25T05:32:50.729Z,928.54
2017-03-25T05:33:18.771Z,928.55
2017-03-25T05:33:46.907Z,928.54
2017-03-25T05:34:15.112Z,928.53
2017-03-25T05:34:43.351Z,928.51
2017-03-25T05:35:11.606Z,928.51
2017-03-25T05:35:39.743Z,928.48
2017-03-25T05:36:07.743Z,928.48
2017-03-25T05:36:36.015Z,928.42
2017-03-25T05:37:04.105Z,928.44
2017-03-25T05:37:32.046Z,928.42
2017-03-25T05:38:00.149Z,928.42
2017-03-25T05:38:28.318Z,928.4
2017-03-25T05:38:56.605Z,928.42
2017-03-25T05:39:24.669Z,928.37
2017-03-25T05:39:52.810Z,928.37
2017-03-25T05:40:21.102Z,928.37
2017-03-25T05:40:49.277Z,928.37
2017-03-25T05:41:17.529Z,928.38
2017-03-25T05:41:45.616Z,928.41
2017-03-25T05:42:13.720Z,928.37
2017-03-25T05:42:41.998Z,928.38
2017-03-25T05:43:10.268Z,928.39
2017-03-25T05:43:38.457Z,928.4
2017-03-25T05:44:06.624Z,928.38
2017-03-25T05:44:34.857Z,928.39
2017-03-25T05:45:03.053Z,928.41
2017-03-25T05:45:31.288Z,928.4
2017-03-25T05:45:59.512Z,928.38
2017-03-25T05:46:27.779Z,928.38
2017-03-25T05:46:56.029Z,928.37
2017-03-25T05:47:24.285Z,928.34
2017-03-25T05:47:52.536Z,928.38
2017-03-25T05:48:20.701Z,928.35
2017-03-25T05:48:48.958Z,928.34
2017-03-25T05:49:17.154Z,928.33
2017-03-25T05:49:45.406Z,928.32
2017-03-25T05:50:13.607Z,928.32
2017-03-25T05:50:41.865Z,928.32
2017-03-25T05:51:10.258Z,928.31
2017-03-25T05:51:38.407Z,928.34
2017-03-25T05:52:06.642Z,928.31
2017-03-25T05:52:34.914Z,928.31
2017-03-25T05:53:03.026Z,928.28
2017-03-25T05:53:31.121Z,928.27
2017-03-25T05:53:59.302Z,928.25
2017-03-25T05:54:27.450Z,928.25